sensor_id;sensor_type;location;lat;lon;timestamp;pressure;altitude;pressure_sealevel;temperature;humidity
10460;BME280;54412;51.206;6.888;2022-10-03T00:10:17;101861.56;;;12.31;73.07
10460;BME280;54412;51.206;6.888;2022-10-03T00:15:39;101864.78;;;12.16;73.20
10460;BME280;54412;51.206;6.888;2022-10-03T00:27:44;101876.88;;;11.98;72.86
10460;BME280;54412;51.206;6.888;2022-10-03T00:30:23;101873.09;;;12.05;72.83
10460;BME280;54412;51.206;6.888;2022-10-03T00:33:17;101873.34;;;11.99;73.19
10460;BME280;54412;51.206;6.888;2022-10-03T00:42:06;101878.69;;;11.98;73.22
10460;BME280;54412;51.206;6.888;2022-10-03T00:50:16;101886.22;;;12.08;72.93
10460;BME280;54412;51.206;6.888;2022-10-03T00:53:06;101886.50;;;12.01;73.23
10460;BME280;54412;51.206;6.888;2022-10-03T00:55:57;101889.19;;;11.99;72.81
10460;BME280;54412;51.206;6.888;2022-10-03T00:58:36;101889.25;;;11.98;72.87
10460;BME280;54412;51.206;6.888;2022-10-03T01:01:49;101897.66;;;11.84;72.89
10460;BME280;54412;51.206;6.888;2022-10-03T01:08:15;101892.31;;;11.86;72.60
10460;BME280;54412;51.206;6.888;2022-10-03T01:11:34;101901.63;;;11.73;73.00
10460;BME280;54412;51.206;6.888;2022-10-03T01:14:36;101893.38;;;11.80;72.60
10460;BME280;54412;51.206;6.888;2022-10-03T01:17:41;101900.41;;;11.81;72.36
10460;BME280;54412;51.206;6.888;2022-10-03T01:23:42;101906.91;;;11.71;73.43
10460;BME280;54412;51.206;6.888;2022-10-03T01:26:23;101904.41;;;11.68;73.53
10460;BME280;54412;51.206;6.888;2022-10-03T01:28:58;101902.44;;;11.73;72.71
10460;BME280;54412;51.206;6.888;2022-10-03T01:32:16;101901.94;;;11.88;72.54
10460;BME280;54412;51.206;6.888;2022-10-03T01:40:32;101903.13;;;11.80;72.67
10460;BME280;54412;51.206;6.888;2022-10-03T01:51:15;101911.25;;;11.74;73.14
10460;BME280;54412;51.206;6.888;2022-10-03T01:54:35;101911.97;;;11.52;73.49
10460;BME280;54412;51.206;6.888;2022-10-03T01:56:53;101911.19;;;11.49;73.25
10460;BME280;54412;51.206;6.888;2022-10-03T02:00:05;101910.22;;;11.51;73.42
10460;BME280;54412;51.206;6.888;2022-10-03T02:09:01;101927.75;;;11.54;72.93
10460;BME280;54412;51.206;6.888;2022-10-03T02:14:27;101931.03;;;11.60;72.86
10460;BME280;54412;51.206;6.888;2022-10-03T02:17:13;101938.69;;;11.70;72.21
10460;BME280;54412;51.206;6.888;2022-10-03T02:20:23;101946.50;;;11.46;72.46
10460;BME280;54412;51.206;6.888;2022-10-03T02:22:54;101944.97;;;11.39;72.58
10460;BME280;54412;51.206;6.888;2022-10-03T02:26:44;101928.47;;;11.33;72.17
10460;BME280;54412;51.206;6.888;2022-10-03T02:29:15;101938.88;;;11.37;73.25
10460;BME280;54412;51.206;6.888;2022-10-03T02:40:43;101934.16;;;11.47;73.73
10460;BME280;54412;51.206;6.888;2022-10-03T03:12:14;101954.78;;;11.36;72.79
10460;BME280;54412;51.206;6.888;2022-10-03T03:18:34;101960.47;;;11.24;73.02
10460;BME280;54412;51.206;6.888;2022-10-03T03:21:50;101959.88;;;11.42;72.35
10460;BME280;54412;51.206;6.888;2022-10-03T03:30:31;101963.72;;;11.32;73.63
10460;BME280;54412;51.206;6.888;2022-10-03T03:35:57;101964.19;;;11.44;73.90
10460;BME280;54412;51.206;6.888;2022-10-03T03:41:37;101963.56;;;11.36;73.45
10460;BME280;54412;51.206;6.888;2022-10-03T03:47:49;101961.78;;;11.37;73.64
10460;BME280;54412;51.206;6.888;2022-10-03T04:00:05;101965.69;;;11.51;73.53
10460;BME280;54412;51.206;6.888;2022-10-03T04:03:13;101965.09;;;11.43;74.44
10460;BME280;54412;51.206;6.888;2022-10-03T04:06:16;101967.75;;;11.43;74.14
10460;BME280;54412;51.206;6.888;2022-10-03T04:12:22;101965.97;;;11.44;74.09
10460;BME280;54412;51.206;6.888;2022-10-03T04:24:00;101982.47;;;11.50;75.66
10460;BME280;54412;51.206;6.888;2022-10-03T04:30:19;101984.78;;;11.61;74.66
10460;BME280;54412;51.206;6.888;2022-10-03T04:36:48;101974.56;;;11.77;75.19
10460;BME280;54412;51.206;6.888;2022-10-03T04:42:35;101972.97;;;11.73;75.50
10460;BME280;54412;51.206;6.888;2022-10-03T04:45:38;101974.00;;;11.69;75.94
10460;BME280;54412;51.206;6.888;2022-10-03T04:51:11;101979.53;;;11.59;76.89
10460;BME280;54412;51.206;6.888;2022-10-03T04:59:39;101977.34;;;11.46;76.62
10460;BME280;54412;51.206;6.888;2022-10-03T05:05:24;101979.59;;;11.58;76.66
10460;BME280;54412;51.206;6.888;2022-10-03T05:09:02;101972.69;;;11.54;76.90
10460;BME280;54412;51.206;6.888;2022-10-03T05:17:14;101984.13;;;11.54;76.75
10460;BME280;54412;51.206;6.888;2022-10-03T05:20:08;101982.53;;;11.49;76.95
10460;BME280;54412;51.206;6.888;2022-10-03T05:26:38;101996.88;;;11.42;76.69
10460;BME280;54412;51.206;6.888;2022-10-03T05:32:55;102005.69;;;11.41;77.45
10460;BME280;54412;51.206;6.888;2022-10-03T05:41:11;102005.09;;;11.87;75.94
10460;BME280;54412;51.206;6.888;2022-10-03T05:44:02;102010.63;;;11.79;76.11
10460;BME280;54412;51.206;6.888;2022-10-03T05:46:45;102006.69;;;11.92;75.56
10460;BME280;54412;51.206;6.888;2022-10-03T05:49:37;102008.63;;;11.87;75.31
10460;BME280;54412;51.206;6.888;2022-10-03T06:06:32;102030.50;;;11.65;77.60
10460;BME280;54412;51.206;6.888;2022-10-03T06:15:38;102031.47;;;11.88;77.03
10460;BME280;54412;51.206;6.888;2022-10-03T06:40:40;102035.16;;;11.55;78.31
10460;BME280;54412;51.206;6.888;2022-10-03T06:43:54;102036.41;;;11.73;77.60
10460;BME280;54412;51.206;6.888;2022-10-03T06:50:04;102050.94;;;11.86;77.61
10460;BME280;54412;51.206;6.888;2022-10-03T07:19:48;102057.56;;;12.25;77.83
10460;BME280;54412;51.206;6.888;2022-10-03T07:22:58;102064.75;;;12.46;77.05
10460;BME280;54412;51.206;6.888;2022-10-03T07:25:36;102061.34;;;12.67;76.49
10460;BME280;54412;51.206;6.888;2022-10-03T07:30:59;102071.72;;;12.73;76.95
10460;BME280;54412;51.206;6.888;2022-10-03T07:49:44;102096.19;;;12.80;76.36
10460;BME280;54412;51.206;6.888;2022-10-03T07:52:45;102099.03;;;12.74;76.39
10460;BME280;54412;51.206;6.888;2022-10-03T07:59:40;102096.44;;;12.72;76.64
10460;BME280;54412;51.206;6.888;2022-10-03T08:05:19;102109.41;;;12.80;77.04
10460;BME280;54412;51.206;6.888;2022-10-03T08:08:28;102110.88;;;13.13;76.58
10460;BME280;54412;51.206;6.888;2022-10-03T09:02:20;102114.47;;;16.32;65.21
10460;BME280;54412;51.206;6.888;2022-10-03T09:17:23;102100.97;;;15.46;68.09
10460;BME280;54412;51.206;6.888;2022-10-03T09:34:58;102110.41;;;17.58;62.54
10460;BME280;54412;51.206;6.888;2022-10-03T09:38:10;102111.56;;;18.00;61.20
10460;BME280;54412;51.206;6.888;2022-10-03T09:44:27;102098.25;;;18.45;60.85
10460;BME280;54412;51.206;6.888;2022-10-03T10:02:39;102079.50;;;19.59;57.11
10460;BME280;54412;51.206;6.888;2022-10-03T10:05:36;102072.53;;;19.56;56.84
10460;BME280;54412;51.206;6.888;2022-10-03T10:40:43;102076.31;;;18.54;57.68
10460;BME280;54412;51.206;6.888;2022-10-03T10:56:21;102066.00;;;18.62;58.65
10460;BME280;54412;51.206;6.888;2022-10-03T10:59:30;102062.59;;;19.16;54.97
10460;BME280;54412;51.206;6.888;2022-10-03T11:11:09;102070.16;;;18.82;53.20
10460;BME280;54412;51.206;6.888;2022-10-03T11:39:06;102051.41;;;17.79;59.81
10460;BME280;54412;51.206;6.888;2022-10-03T11:41:50;102050.75;;;18.20;58.01
10460;BME280;54412;51.206;6.888;2022-10-03T11:44:33;102045.84;;;18.56;57.23
10460;BME280;54412;51.206;6.888;2022-10-03T11:47:27;102041.50;;;19.12;55.74
10460;BME280;54412;51.206;6.888;2022-10-03T11:53:08;102052.28;;;18.96;54.83
10460;BME280;54412;51.206;6.888;2022-10-03T11:58:32;102048.72;;;20.05;53.35
10460;BME280;54412;51.206;6.888;2022-10-03T12:07:13;102042.63;;;21.54;48.97
10460;BME280;54412;51.206;6.888;2022-10-03T12:10:32;102038.31;;;21.88;48.75
10460;BME280;54412;51.206;6.888;2022-10-03T12:13:10;102031.22;;;21.27;48.04
10460;BME280;54412;51.206;6.888;2022-10-03T12:15:46;102043.81;;;20.63;47.86
10460;BME280;54412;51.206;6.888;2022-10-03T12:24:13;102043.81;;;21.50;44.73
10460;BME280;54412;51.206;6.888;2022-10-03T12:27:14;102030.19;;;20.54;46.73
10460;BME280;54412;51.206;6.888;2022-10-03T12:29:55;102027.38;;;19.91;49.02
10460;BME280;54412;51.206;6.888;2022-10-03T12:33:00;102027.63;;;19.47;50.07
10460;BME280;54412;51.206;6.888;2022-10-03T12:35:47;102028.91;;;20.59;49.20
10460;BME280;54412;51.206;6.888;2022-10-03T12:42:05;102023.53;;;20.08;49.57
10460;BME280;54412;51.206;6.888;2022-10-03T12:44:48;102022.47;;;21.00;47.69
10460;BME280;54412;51.206;6.888;2022-10-03T12:47:54;102026.44;;;21.79;46.51
10460;BME280;54412;51.206;6.888;2022-10-03T12:50:53;102023.50;;;21.58;44.73
10460;BME280;54412;51.206;6.888;2022-10-03T12:53:50;102018.13;;;21.95;44.22
10460;BME280;54412;51.206;6.888;2022-10-03T12:56:47;102028.94;;;21.46;44.47
10460;BME280;54412;51.206;6.888;2022-10-03T12:59:41;102025.91;;;20.76;46.38
10460;BME280;54412;51.206;6.888;2022-10-03T13:02:39;102019.66;;;20.38;47.97
10460;BME280;54412;51.206;6.888;2022-10-03T13:17:48;102009.59;;;21.17;48.24
10460;BME280;54412;51.206;6.888;2022-10-03T13:20:31;102012.69;;;21.84;46.66
10460;BME280;54412;51.206;6.888;2022-10-03T13:23:41;102007.38;;;22.06;45.94
10460;BME280;54412;51.206;6.888;2022-10-03T13:27:02;101996.63;;;22.40;46.14
10460;BME280;54412;51.206;6.888;2022-10-03T13:29:58;101995.53;;;22.43;45.81
10460;BME280;54412;51.206;6.888;2022-10-03T13:32:38;101998.50;;;21.82;45.61
10460;BME280;54412;51.206;6.888;2022-10-03T13:35:19;101993.53;;;21.28;46.39
10460;BME280;54412;51.206;6.888;2022-10-03T13:41:05;101989.75;;;20.57;49.60
10460;BME280;54412;51.206;6.888;2022-10-03T13:43:37;101997.38;;;20.25;49.83
10460;BME280;54412;51.206;6.888;2022-10-03T13:46:16;101992.59;;;19.77;50.44
10460;BME280;54412;51.206;6.888;2022-10-03T13:48:55;101998.50;;;19.69;50.94
10460;BME280;54412;51.206;6.888;2022-10-03T13:57:45;101987.16;;;19.11;53.09
10460;BME280;54412;51.206;6.888;2022-10-03T14:00:22;101979.25;;;18.96;53.41
10460;BME280;54412;51.206;6.888;2022-10-03T14:03:14;101979.34;;;18.80;53.80
10460;BME280;54412;51.206;6.888;2022-10-03T14:06:04;101977.25;;;18.71;53.12
10460;BME280;54412;51.206;6.888;2022-10-03T14:15:12;101976.00;;;18.48;53.61
10460;BME280;54412;51.206;6.888;2022-10-03T14:18:15;101972.06;;;18.40;54.29
10460;BME280;54412;51.206;6.888;2022-10-03T14:23:51;101970.53;;;18.36;53.95
10460;BME280;54412;51.206;6.888;2022-10-03T14:26:34;101974.78;;;18.10;55.08
10460;BME280;54412;51.206;6.888;2022-10-03T14:29:38;101970.00;;;18.15;54.97
10460;BME280;54412;51.206;6.888;2022-10-03T14:32:23;101967.53;;;18.12;55.59
10460;BME280;54412;51.206;6.888;2022-10-03T14:38:38;101966.66;;;18.12;56.82
10460;BME280;54412;51.206;6.888;2022-10-03T14:44:40;101964.16;;;17.95;56.32
10460;BME280;54412;51.206;6.888;2022-10-03T14:47:14;101958.16;;;17.91;56.61
10460;BME280;54412;51.206;6.888;2022-10-03T14:49:51;101949.50;;;18.02;56.76
10460;BME280;54412;51.206;6.888;2022-10-03T14:52:38;101950.53;;;17.99;55.73
10460;BME280;54412;51.206;6.888;2022-10-03T14:55:24;101955.78;;;18.01;55.61
10460;BME280;54412;51.206;6.888;2022-10-03T14:58:03;101947.94;;;17.98;55.79
10460;BME280;54412;51.206;6.888;2022-10-03T15:00:41;101944.41;;;17.97;54.72
10460;BME280;54412;51.206;6.888;2022-10-03T15:08:51;101939.16;;;17.96;55.28
10460;BME280;54412;51.206;6.888;2022-10-03T15:11:26;101947.47;;;17.91;55.09
10460;BME280;54412;51.206;6.888;2022-10-03T15:14:01;101939.63;;;17.88;55.93
10460;BME280;54412;51.206;6.888;2022-10-03T15:16:35;101943.66;;;17.95;55.90
10460;BME280;54412;51.206;6.888;2022-10-03T15:19:20;101943.03;;;17.76;56.63
10460;BME280;54412;51.206;6.888;2022-10-03T15:21:51;101939.69;;;17.72;56.83
10460;BME280;54412;51.206;6.888;2022-10-03T15:24:28;101930.81;;;17.72;56.27
10460;BME280;54412;51.206;6.888;2022-10-03T15:27:05;101931.13;;;17.82;55.04
10460;BME280;54412;51.206;6.888;2022-10-03T15:29:33;101936.28;;;17.85;54.67
10460;BME280;54412;51.206;6.888;2022-10-03T15:32:02;101928.56;;;17.80;54.92
10460;BME280;54412;51.206;6.888;2022-10-03T15:34:37;101930.00;;;17.86;55.25
10460;BME280;54412;51.206;6.888;2022-10-03T15:37:14;101912.25;;;17.85;54.91
10460;BME280;54412;51.206;6.888;2022-10-03T15:39:43;101907.91;;;17.98;54.39
10460;BME280;54412;51.206;6.888;2022-10-03T15:42:29;101911.66;;;18.09;54.32
10460;BME280;54412;51.206;6.888;2022-10-03T15:45:03;101905.91;;;18.15;54.37
10460;BME280;54412;51.206;6.888;2022-10-03T15:47:40;101906.97;;;18.13;54.16
10460;BME280;54412;51.206;6.888;2022-10-03T15:50:30;101902.50;;;18.13;54.11
10460;BME280;54412;51.206;6.888;2022-10-03T15:55:52;101904.63;;;17.79;55.97
10460;BME280;54412;51.206;6.888;2022-10-03T15:58:31;101902.50;;;17.69;57.75
10460;BME280;54412;51.206;6.888;2022-10-03T16:01:12;101892.47;;;17.59;59.19
10460;BME280;54412;51.206;6.888;2022-10-03T16:03:46;101883.53;;;17.44;59.08
10460;BME280;54412;51.206;6.888;2022-10-03T16:06:29;101886.22;;;17.29;59.54
10460;BME280;54412;51.206;6.888;2022-10-03T16:20:27;101886.88;;;16.87;64.32
10460;BME280;54412;51.206;6.888;2022-10-03T16:23:23;101888.00;;;16.83;64.43
10460;BME280;54412;51.206;6.888;2022-10-03T16:25:55;101880.41;;;16.76;65.14
10460;BME280;54412;51.206;6.888;2022-10-03T16:28:35;101880.84;;;16.68;65.67
10460;BME280;54412;51.206;6.888;2022-10-03T16:33:46;101866.91;;;16.63;66.10
10460;BME280;54412;51.206;6.888;2022-10-03T16:36:19;101878.44;;;16.63;66.38
10460;BME280;54412;51.206;6.888;2022-10-03T16:39:31;101876.44;;;16.51;66.98
10460;BME280;54412;51.206;6.888;2022-10-03T16:42:11;101883.00;;;16.61;66.64
10460;BME280;54412;51.206;6.888;2022-10-03T16:47:14;101877.34;;;16.35;67.91
10460;BME280;54412;51.206;6.888;2022-10-03T16:49:54;101868.91;;;16.27;68.08
10460;BME280;54412;51.206;6.888;2022-10-03T16:52:40;101862.28;;;16.18;68.64
10460;BME280;54412;51.206;6.888;2022-10-03T17:04:10;101857.41;;;15.94;69.53
10460;BME280;54412;51.206;6.888;2022-10-03T17:06:38;101863.91;;;15.88;69.79
10460;BME280;54412;51.206;6.888;2022-10-03T17:09:37;101871.19;;;15.85;69.76
10460;BME280;54412;51.206;6.888;2022-10-03T17:12:03;101864.59;;;15.92;69.41
10460;BME280;54412;51.206;6.888;2022-10-03T17:14:39;101853.69;;;15.96;68.78
10460;BME280;54412;51.206;6.888;2022-10-03T17:20:12;101856.19;;;15.66;69.70
10460;BME280;54412;51.206;6.888;2022-10-03T17:23:38;101856.09;;;15.68;69.48
10460;BME280;54412;51.206;6.888;2022-10-03T17:26:24;101845.38;;;15.69;68.99
10460;BME280;54412;51.206;6.888;2022-10-03T17:29:18;101847.19;;;15.52;69.89
10460;BME280;54412;51.206;6.888;2022-10-03T17:32:01;101847.56;;;15.61;68.72
10460;BME280;54412;51.206;6.888;2022-10-03T17:43:33;101851.75;;;15.14;71.09
10460;BME280;54412;51.206;6.888;2022-10-03T17:46:26;101847.91;;;15.20;70.68
10460;BME280;54412;51.206;6.888;2022-10-03T17:49:15;101852.91;;;15.26;70.52
10460;BME280;54412;51.206;6.888;2022-10-03T17:51:44;101851.25;;;15.06;71.20
10460;BME280;54412;51.206;6.888;2022-10-03T17:54:24;101849.38;;;15.08;71.02
10460;BME280;54412;51.206;6.888;2022-10-03T17:56:58;101852.13;;;15.07;71.26
10460;BME280;54412;51.206;6.888;2022-10-03T17:59:35;101851.56;;;15.00;71.66
10460;BME280;54412;51.206;6.888;2022-10-03T18:02:33;101854.44;;;14.96;71.29
10460;BME280;54412;51.206;6.888;2022-10-03T18:05:34;101850.28;;;14.90;71.19
10460;BME280;54412;51.206;6.888;2022-10-03T18:08:12;101852.38;;;14.84;71.34
10460;BME280;54412;51.206;6.888;2022-10-03T18:10:46;101858.47;;;14.86;71.45
10460;BME280;54412;51.206;6.888;2022-10-03T18:13:32;101843.00;;;14.77;71.93
10460;BME280;54412;51.206;6.888;2022-10-03T18:19:08;101843.09;;;14.92;71.25
10460;BME280;54412;51.206;6.888;2022-10-03T18:22:10;101835.66;;;14.82;71.50
10460;BME280;54412;51.206;6.888;2022-10-03T18:24:58;101836.09;;;14.73;72.18
10460;BME280;54412;51.206;6.888;2022-10-03T18:27:54;101836.53;;;14.82;71.88
10460;BME280;54412;51.206;6.888;2022-10-03T18:30:56;101836.38;;;14.66;72.19
10460;BME280;54412;51.206;6.888;2022-10-03T18:33:32;101825.75;;;14.66;72.16
10460;BME280;54412;51.206;6.888;2022-10-03T18:36:14;101829.56;;;14.61;71.75
10460;BME280;54412;51.206;6.888;2022-10-03T18:38:44;101834.75;;;14.64;72.32
10460;BME280;54412;51.206;6.888;2022-10-03T18:41:14;101823.53;;;14.57;72.50
10460;BME280;54412;51.206;6.888;2022-10-03T18:43:50;101826.34;;;14.73;71.84
10460;BME280;54412;51.206;6.888;2022-10-03T18:46:24;101826.81;;;14.62;71.92
10460;BME280;54412;51.206;6.888;2022-10-03T18:49:06;101824.41;;;14.58;71.98
10460;BME280;54412;51.206;6.888;2022-10-03T18:52:09;101820.31;;;14.51;72.60
10460;BME280;54412;51.206;6.888;2022-10-03T18:54:57;101820.53;;;14.46;72.62
10460;BME280;54412;51.206;6.888;2022-10-03T18:57:58;101824.97;;;14.64;72.26
10460;BME280;54412;51.206;6.888;2022-10-03T19:00:39;101820.31;;;14.51;72.66
10460;BME280;54412;51.206;6.888;2022-10-03T19:03:17;101823.69;;;14.54;72.64
10460;BME280;54412;51.206;6.888;2022-10-03T19:06:12;101818.75;;;14.47;72.59
10460;BME280;54412;51.206;6.888;2022-10-03T19:08:52;101817.94;;;14.45;72.65
10460;BME280;54412;51.206;6.888;2022-10-03T19:14:31;101819.81;;;14.43;72.79
10460;BME280;54412;51.206;6.888;2022-10-03T19:17:47;101822.97;;;14.51;72.56
10460;BME280;54412;51.206;6.888;2022-10-03T19:20:24;101832.09;;;14.45;72.75
10460;BME280;54412;51.206;6.888;2022-10-03T19:23:10;101826.22;;;14.39;73.35
10460;BME280;54412;51.206;6.888;2022-10-03T19:25:42;101834.31;;;14.36;73.80
10460;BME280;54412;51.206;6.888;2022-10-03T19:28:47;101844.41;;;14.46;73.36
10460;BME280;54412;51.206;6.888;2022-10-03T19:32:00;101837.69;;;14.58;72.69
10460;BME280;54412;51.206;6.888;2022-10-03T19:34:36;101835.69;;;14.44;72.88
10460;BME280;54412;51.206;6.888;2022-10-03T19:39:50;101826.84;;;14.44;73.73
10460;BME280;54412;51.206;6.888;2022-10-03T19:44:58;101828.56;;;14.45;73.55
10460;BME280;54412;51.206;6.888;2022-10-03T19:47:37;101825.56;;;14.52;73.27
10460;BME280;54412;51.206;6.888;2022-10-03T19:50:27;101834.59;;;14.48;73.37
10460;BME280;54412;51.206;6.888;2022-10-03T19:52:54;101823.84;;;14.51;73.33
10460;BME280;54412;51.206;6.888;2022-10-03T19:55:23;101816.72;;;14.52;73.17
10460;BME280;54412;51.206;6.888;2022-10-03T19:58:12;101813.78;;;14.39;73.70
10460;BME280;54412;51.206;6.888;2022-10-03T20:00:48;101812.72;;;14.43;73.68
10460;BME280;54412;51.206;6.888;2022-10-03T20:03:33;101825.09;;;14.24;74.23
10460;BME280;54412;51.206;6.888;2022-10-03T20:06:28;101833.81;;;14.28;74.29
10460;BME280;54412;51.206;6.888;2022-10-03T20:09:05;101830.28;;;14.27;74.30
10460;BME280;54412;51.206;6.888;2022-10-03T20:14:32;101833.69;;;14.11;74.43
10460;BME280;54412;51.206;6.888;2022-10-03T20:17:03;101835.78;;;14.23;73.72
10460;BME280;54412;51.206;6.888;2022-10-03T20:19:47;101839.84;;;14.11;73.67
10460;BME280;54412;51.206;6.888;2022-10-03T20:22:23;101836.97;;;14.16;73.47
10460;BME280;54412;51.206;6.888;2022-10-03T20:24:50;101836.06;;;14.17;73.36
10460;BME280;54412;51.206;6.888;2022-10-03T20:32:44;101834.63;;;14.10;73.01
10460;BME280;54412;51.206;6.888;2022-10-03T20:35:23;101833.44;;;13.97;73.34
10460;BME280;54412;51.206;6.888;2022-10-03T20:38:18;101834.09;;;14.02;73.13
10460;BME280;54412;51.206;6.888;2022-10-03T20:41:06;101833.72;;;13.91;73.30
10460;BME280;54412;51.206;6.888;2022-10-03T20:43:49;101831.63;;;13.79;73.58
10460;BME280;54412;51.206;6.888;2022-10-03T20:46:37;101821.81;;;13.81;73.25
10460;BME280;54412;51.206;6.888;2022-10-03T20:49:33;101824.47;;;13.60;74.07
10460;BME280;54412;51.206;6.888;2022-10-03T20:52:05;101820.34;;;13.74;73.28
10460;BME280;54412;51.206;6.888;2022-10-03T20:54:59;101816.38;;;13.63;73.35
10460;BME280;54412;51.206;6.888;2022-10-03T20:58:25;101815.53;;;13.63;72.87
10460;BME280;54412;51.206;6.888;2022-10-03T21:00:47;101810.88;;;13.68;72.66
10460;BME280;54412;51.206;6.888;2022-10-03T21:06:28;101801.22;;;13.67;72.38
10460;BME280;54412;51.206;6.888;2022-10-03T21:08:57;101801.66;;;13.56;72.93
10460;BME280;54412;51.206;6.888;2022-10-03T21:11:30;101801.00;;;13.51;72.93
10460;BME280;54412;51.206;6.888;2022-10-03T21:16:48;101802.06;;;13.47;73.36
10460;BME280;54412;51.206;6.888;2022-10-03T21:22:01;101811.50;;;13.34;73.46
10460;BME280;54412;51.206;6.888;2022-10-03T21:24:39;101807.22;;;13.30;73.19
10460;BME280;54412;51.206;6.888;2022-10-03T21:27:13;101797.38;;;13.34;73.18
10460;BME280;54412;51.206;6.888;2022-10-03T21:29:54;101791.53;;;13.46;72.85
10460;BME280;54412;51.206;6.888;2022-10-03T21:32:56;101790.94;;;13.39;72.83
10460;BME280;54412;51.206;6.888;2022-10-03T21:35:38;101791.47;;;13.27;72.97
10460;BME280;54412;51.206;6.888;2022-10-03T21:38:19;101787.88;;;13.28;73.18
10460;BME280;54412;51.206;6.888;2022-10-03T21:41:26;101790.47;;;13.30;72.86
10460;BME280;54412;51.206;6.888;2022-10-03T21:44:03;101789.50;;;13.32;72.70
10460;BME280;54412;51.206;6.888;2022-10-03T21:47:07;101793.31;;;13.25;72.52
10460;BME280;54412;51.206;6.888;2022-10-03T21:49:54;101795.50;;;13.16;72.76
10460;BME280;54412;51.206;6.888;2022-10-03T21:52:50;101798.56;;;13.27;72.52
10460;BME280;54412;51.206;6.888;2022-10-03T21:59:00;101801.38;;;13.22;73.12
10460;BME280;54412;51.206;6.888;2022-10-03T22:01:52;101794.16;;;13.26;72.82
10460;BME280;54412;51.206;6.888;2022-10-03T22:07:16;101792.59;;;13.22;73.19
10460;BME280;54412;51.206;6.888;2022-10-03T22:09:53;101799.34;;;13.29;72.96
10460;BME280;54412;51.206;6.888;2022-10-03T22:12:21;101799.22;;;13.32;73.10
10460;BME280;54412;51.206;6.888;2022-10-03T22:15:09;101797.50;;;13.31;73.00
10460;BME280;54412;51.206;6.888;2022-10-03T22:17:54;101794.25;;;13.24;73.25
10460;BME280;54412;51.206;6.888;2022-10-03T22:20:27;101792.25;;;13.29;73.55
10460;BME280;54412;51.206;6.888;2022-10-03T22:23:21;101803.06;;;13.25;73.40
10460;BME280;54412;51.206;6.888;2022-10-03T22:26:04;101794.50;;;13.38;72.56
10460;BME280;54412;51.206;6.888;2022-10-03T22:31:58;101789.75;;;13.26;72.59
10460;BME280;54412;51.206;6.888;2022-10-03T22:34:32;101786.56;;;13.38;72.59
10460;BME280;54412;51.206;6.888;2022-10-03T22:37:02;101789.59;;;13.29;73.04
10460;BME280;54412;51.206;6.888;2022-10-03T22:39:29;101784.38;;;13.28;73.14
10460;BME280;54412;51.206;6.888;2022-10-03T22:41:58;101790.78;;;13.22;73.13
10460;BME280;54412;51.206;6.888;2022-10-03T22:44:31;101780.25;;;13.21;72.49
10460;BME280;54412;51.206;6.888;2022-10-03T22:47:19;101781.69;;;13.08;73.05
10460;BME280;54412;51.206;6.888;2022-10-03T22:49:47;101776.72;;;13.00;73.46
10460;BME280;54412;51.206;6.888;2022-10-03T22:52:24;101773.88;;;13.05;73.28
10460;BME280;54412;51.206;6.888;2022-10-03T22:54:51;101771.16;;;13.06;73.11
10460;BME280;54412;51.206;6.888;2022-10-03T22:57:18;101774.38;;;13.14;72.68
10460;BME280;54412;51.206;6.888;2022-10-03T22:59:59;101773.38;;;12.95;73.37
10460;BME280;54412;51.206;6.888;2022-10-03T23:02:34;101757.22;;;13.23;72.31
10460;BME280;54412;51.206;6.888;2022-10-03T23:11:22;101736.81;;;13.05;72.84
10460;BME280;54412;51.206;6.888;2022-10-03T23:13:50;101740.84;;;13.13;72.41
10460;BME280;54412;51.206;6.888;2022-10-03T23:21:48;101724.84;;;13.16;72.09
10460;BME280;54412;51.206;6.888;2022-10-03T23:29:46;101734.44;;;12.97;72.79
10460;BME280;54412;51.206;6.888;2022-10-03T23:37:59;101726.16;;;13.06;72.43
10460;BME280;54412;51.206;6.888;2022-10-03T23:40:53;101725.16;;;13.09;72.16
10460;BME280;54412;51.206;6.888;2022-10-03T23:43:54;101713.97;;;13.02;72.23
10460;BME280;54412;51.206;6.888;2022-10-03T23:46:24;101707.59;;;13.06;72.12
10460;BME280;54412;51.206;6.888;2022-10-03T23:49:00;101710.53;;;13.20;71.39
10460;BME280;54412;51.206;6.888;2022-10-03T23:51:33;101714.75;;;13.04;72.45
10460;BME280;54412;51.206;6.888;2022-10-03T23:54:05;101727.69;;;12.90;72.93
